Providence Village's Hourly Summary for Wednesday, May 9, 2018
Hour Temp
(f)
RH
(%)
Solar Rad.
(MJ/m2)
Rainfall
(in)
Wind
(mph)
5/9/2018 12:00 AM 78 49 0 0 7.38
5/9/2018 1:00 AM 77 51 0 0 9.18
5/9/2018 2:00 AM 76 49 0 0 10.33
5/9/2018 3:00 AM 75 47 0 0 9.78
5/9/2018 4:00 AM 73 48 0 0 8.8
5/9/2018 5:00 AM 71 54 0 0 7.15
5/9/2018 6:00 AM 70 54 0 0 5.78
5/9/2018 7:00 AM 68 55 0.02 0 4.31
5/9/2018 8:00 AM 68 59 0.26 0 2.43
5/9/2018 9:00 AM 71 51 0.5 0 3.52
5/9/2018 10:00 AM 73 49 1.5 0 6.75
5/9/2018 11:00 AM 76 49 2.1 0 7.52
5/9/2018 12:00 PM 79 47 2.67 0 9.7
5/9/2018 1:00 PM 82 35 3.11 0 9.3
5/9/2018 2:00 PM 83 32 3.21 0 9.54
5/9/2018 3:00 PM 84 34 3.09 0 9.39
5/9/2018 4:00 PM 85 32 2.79 0 9.57
5/9/2018 5:00 PM 86 32 2.37 0 8.85
5/9/2018 6:00 PM 85 35 1.72 0 7.53
5/9/2018 7:00 PM 84 37 1.07 0 7.59
5/9/2018 8:00 PM 83 36 0.4 0 8.11
5/9/2018 9:00 PM 80 43 0.02 0 6.23
5/9/2018 10:00 PM 78 47 0 0 3.29
5/9/2018 11:00 PM 76 51 0 0 2.65
Data Summary 77 44 24.83 0.00 7.28